Time;durP1;ratioP1;P1;durP2;ratioP2;P2;SDS_P1;SDS_P2;PMS_P1;PMS_P2;Temp;Humidity;BMP_temperature;BMP_pressure;BME280_temperature;BME280_humidity;BME280_pressure;Samples;Min_cycle;Max_cycle;Signal;HPM_P1;HPM_P2
2022/12/26 00:00:23;;;;;;;8.10;2.83;;;;;;;19.20;54.95;100264.22;4986166;28;20468;-66
2022/12/26 00:02:49;;;;;;;12.03;2.67;;;;;;;19.21;55.50;100270.78;5025285;28;20182;-67
2022/12/26 00:05:14;;;;;;;10.00;2.83;;;;;;;19.22;55.34;100267.56;4967554;28;20449;-67
2022/12/26 00:07:40;;;;;;;7.60;2.63;;;;;;;19.24;55.67;100265.16;4969160;28;20170;-66
2022/12/26 00:10:06;;;;;;;4.77;2.20;;;;;;;19.30;55.41;100257.03;4980664;28;20676;-66
2022/12/26 00:12:31;;;;;;;5.97;2.37;;;;;;;19.29;55.32;100261.94;4984220;28;20186;-65
2022/12/26 00:14:57;;;;;;;8.33;2.83;;;;;;;19.35;55.17;100268.97;4988977;28;20427;-66
2022/12/26 00:17:22;;;;;;;6.77;2.43;;;;;;;19.32;55.64;100277.53;4967071;28;20632;-65
2022/12/26 00:19:47;;;;;;;8.90;2.93;;;;;;;19.33;55.29;100280.00;4971219;28;20186;-66
2022/12/26 00:22:14;;;;;;;7.37;2.93;;;;;;;19.30;55.51;100283.63;4984687;28;20186;-66
2022/12/26 00:24:40;;;;;;;9.20;2.60;;;;;;;19.32;55.46;100280.38;4971076;28;20182;-66
2022/12/26 00:27:05;;;;;;;6.63;2.20;;;;;;;19.30;55.53;100269.31;4988782;28;20421;-65
2022/12/26 00:29:31;;;;;;;11.47;3.30;;;;;;;19.30;55.38;100265.63;4971763;28;20495;-66
2022/12/26 00:31:56;;;;;;;4.83;2.40;;;;;;;19.29;55.49;100276.25;4969192;28;20621;-66
2022/12/26 00:34:21;;;;;;;5.50;2.30;;;;;;;19.28;55.46;100285.22;4971522;28;20653;-66
2022/12/26 00:36:47;;;;;;;7.57;2.73;;;;;;;19.30;55.58;100282.78;4969052;28;20649;-66
2022/12/26 00:39:12;;;;;;;8.40;2.60;;;;;;;19.30;55.34;100274.22;4988351;28;20300;-66
2022/12/26 00:41:38;;;;;;;8.10;1.90;;;;;;;19.28;55.52;100285.22;4970858;28;20189;-65
2022/12/26 00:44:03;;;;;;;8.90;2.47;;;;;;;19.29;55.65;100281.97;4970862;28;20178;-66
2022/12/26 00:46:29;;;;;;;3.40;2.07;;;;;;;19.27;55.97;100272.94;4957023;28;20730;-66
2022/12/26 00:48:54;;;;;;;9.10;2.20;;;;;;;19.29;55.50;100263.97;4968808;28;20179;-66
2022/12/26 00:51:20;;;;;;;8.13;2.27;;;;;;;19.29;55.77;100258.25;5003787;28;20182;-66
2022/12/26 00:53:45;;;;;;;9.30;2.00;;;;;;;19.26;55.64;100251.25;4969060;28;20535;-65
2022/12/26 00:56:11;;;;;;;5.70;2.30;;;;;;;19.29;55.87;100253.38;4951331;28;20179;-66
2022/12/26 00:58:37;;;;;;;4.17;2.20;;;;;;;19.27;55.54;100252.91;4935355;28;20230;-67
2022/12/26 01:01:11;;;;;;;4.77;1.90;;;;;;;19.27;55.57;100247.19;4942561;28;20222;-66
2022/12/26 01:03:38;;;;;;;10.87;2.33;;;;;;;19.26;55.82;100241.88;4976837;28;20213;-66
2022/12/26 01:06:04;;;;;;;8.77;2.30;;;;;;;19.27;55.62;100241.47;4970402;28;20503;-67
2022/12/26 01:08:29;;;;;;;6.13;2.70;;;;;;;19.31;55.69;100244.41;4986052;28;20516;-66
2022/12/26 01:10:55;;;;;;;6.47;2.10;;;;;;;19.29;56.07;100253.38;4955202;28;20217;-65
2022/12/26 01:13:20;;;;;;;5.03;2.07;;;;;;;19.27;55.57;100261.50;4951408;28;20197;-66
2022/12/26 01:15:49;;;;;;;4.93;2.03;;;;;;;19.29;55.77;100261.09;5018893;28;20174;-65
2022/12/26 01:18:15;;;;;;;4.07;2.10;;;;;;;19.29;55.57;100270.53;4948522;28;20566;-66
2022/12/26 01:20:40;;;;;;;6.17;2.10;;;;;;;19.29;55.68;100269.69;4953451;28;20437;-66
2022/12/26 01:23:06;;;;;;;5.20;2.13;;;;;;;19.28;55.89;100279.50;4985310;28;20178;-66
2022/12/26 01:25:31;;;;;;;5.40;2.30;;;;;;;19.29;55.59;100284.84;4989836;28;20185;-66
2022/12/26 01:27:57;;;;;;;5.87;2.47;;;;;;;19.24;55.65;100282.31;4974088;28;20193;-65
2022/12/26 01:30:23;;;;;;;6.00;2.47;;;;;;;19.23;55.95;100277.81;5021829;28;20163;-66
2022/12/26 01:32:48;;;;;;;4.10;2.07;;;;;;;19.26;55.75;100274.16;5038649;28;20301;-66
2022/12/26 01:35:13;;;;;;;7.90;2.83;;;;;;;19.23;55.83;100271.25;5031766;28;20864;-65
2022/12/26 01:37:39;;;;;;;3.63;1.90;;;;;;;19.21;55.84;100285.91;4961045;28;20633;-66
2022/12/26 01:40:05;;;;;;;6.53;1.97;;;;;;;19.23;55.82;100276.97;4973886;28;20197;-66
2022/12/26 01:42:36;;;;;;;7.00;2.20;;;;;;;19.26;55.75;100279.06;4974110;28;20620;-66
2022/12/26 01:45:28;;;;;;;4.43;2.20;;;;;;;19.23;55.69;100283.53;4942345;28;20448;-66
2022/12/26 01:48:05;;;;;;;3.50;2.00;;;;;;;19.27;55.87;100301.56;4989233;28;20748;-66
2022/12/26 01:50:39;;;;;;;4.03;2.03;;;;;;;19.24;56.10;100290.91;4990601;28;20516;-66
2022/12/26 01:53:17;;;;;;;6.43;2.13;;;;;;;19.23;55.58;100295.00;4990897;28;20914;-66
2022/12/26 01:55:43;;;;;;;4.03;1.97;;;;;;;19.22;55.91;100293.31;4941958;28;20447;-65
2022/12/26 01:58:16;;;;;;;7.20;2.03;;;;;;;19.21;55.71;100291.63;4953776;28;20476;-66
2022/12/26 02:00:42;;;;;;;5.10;1.90;;;;;;;19.23;55.96;100305.59;4974107;28;20516;-65
2022/12/26 02:05:53;;;;;;;9.43;2.50;;;;;;;19.24;55.71;100305.22;4957230;28;20185;-66
2022/12/26 02:08:23;;;;;;;4.20;2.20;;;;;;;19.20;55.94;100301.44;4943624;28;20460;-66
2022/12/26 02:11:06;;;;;;;6.33;2.10;;;;;;;19.19;55.92;100305.53;4957002;28;20429;-66
2022/12/26 02:13:34;;;;;;;3.53;2.00;;;;;;;19.19;56.01;100305.53;4987548;28;20441;-66
2022/12/26 02:16:00;;;;;;;5.20;2.37;;;;;;;19.20;55.77;100309.19;4955098;28;20525;-66
2022/12/26 02:18:25;;;;;;;5.80;2.43;;;;;;;19.19;55.88;100308.38;4952738;28;20479;-66
2022/12/26 02:21:04;;;;;;;5.83;2.23;;;;;;;19.18;55.89;100312.47;4955028;28;20449;-67
2022/12/26 02:23:35;;;;;;;4.33;1.97;;;;;;;19.21;55.66;100310.88;4968373;28;20221;-65
2022/12/26 02:26:15;;;;;;;3.60;1.83;;;;;;;19.23;55.84;100323.59;4976864;28;20777;-65
2022/12/26 02:29:14;;;;;;;4.60;2.13;;;;;;;19.20;55.99;100312.88;4990316;28;20417;-66
2022/12/26 02:32:01;;;;;;;4.43;1.97;;;;;;;19.20;55.72;100317.78;4975291;28;20424;-66
2022/12/26 02:35:03;;;;;;;4.40;2.30;;;;;;;19.18;56.05;100314.47;4971510;28;20452;-66
2022/12/26 02:37:53;;;;;;;4.40;2.43;;;;;;;19.19;55.82;100311.25;4952613;28;20639;-66
2022/12/26 02:40:29;;;;;;;3.23;1.63;;;;;;;19.18;56.05;100306.72;4985492;28;20424;-66
2022/12/26 02:42:58;;;;;;;4.10;2.30;;;;;;;19.17;55.78;100296.47;4968071;28;20430;-66
2022/12/26 02:48:29;;;;;;;4.13;2.20;;;;;;;19.19;55.86;100302.66;4958692;28;20477;-66
2022/12/26 03:15:05;;;;;;;6.03;2.00;;;;;;;19.15;56.01;100293.19;4949412;29;20441;-66
2022/12/26 03:17:34;;;;;;;5.73;2.20;;;;;;;19.19;55.94;100290.38;4940672;28;20475;-67
2022/12/26 03:20:20;;;;;;;6.07;2.40;;;;;;;19.18;55.74;100291.59;4940207;29;20783;-66
2022/12/26 03:22:57;;;;;;;4.10;1.87;;;;;;;19.16;55.85;100288.28;4931545;29;20455;-66
2022/12/26 03:28:21;;;;;;;3.97;1.90;;;;;;;19.18;56.38;100288.72;4916115;29;20910;-66
2022/12/26 03:30:49;;;;;;;5.13;2.00;;;;;;;19.17;55.84;100276.44;4914525;29;20588;-66
2022/12/26 03:36:05;;;;;;;6.73;2.50;;;;;;;19.15;55.85;100270.28;4931677;29;20415;-66
2022/12/26 03:39:06;;;;;;;3.53;2.00;;;;;;;19.15;56.11;100272.31;4931820;29;20475;-66
2022/12/26 04:19:26;;;;;;;3.57;1.70;;;;;;;19.12;55.83;100265.31;4950047;29;20968;-66
2022/12/26 04:45:23;;;;;;;3.90;2.10;;;;;;;19.15;54.99;100292.34;4954200;28;20785;-65
2022/12/26 04:50:33;;;;;;;5.37;2.37;;;;;;;19.13;55.94;100300.50;4934950;29;20225;-65
2022/12/26 04:52:58;;;;;;;5.40;2.37;;;;;;;19.14;55.85;100310.72;4918520;28;20438;-66
2022/12/26 04:55:25;;;;;;;2.23;1.23;;;;;;;19.15;56.20;100303.78;4932837;28;20202;-65
2022/12/26 04:57:51;;;;;;;3.07;1.83;;;;;;;19.14;55.64;100297.25;4951214;29;20175;-66
2022/12/26 05:00:16;;;;;;;4.20;1.80;;;;;;;19.14;55.83;100302.16;4951556;29;20466;-65
2022/12/26 05:11:08;;;;;;;3.67;2.33;;;;;;;19.15;55.86;100307.50;4954824;28;20445;-66
2022/12/26 05:13:33;;;;;;;2.37;1.50;;;;;;;19.18;55.52;100314.47;4969973;28;20426;-66
2022/12/26 05:29:38;;;;;;;5.20;1.63;;;;;;;19.15;55.61;100304.63;4961757;28;20442;-66
2022/12/26 05:32:04;;;;;;;3.30;1.73;;;;;;;19.16;55.56;100306.28;4955726;28;20434;-65
2022/12/26 05:34:29;;;;;;;6.23;2.53;;;;;;;19.18;55.70;100306.72;4963744;28;20181;-66
2022/12/26 05:36:57;;;;;;;3.10;1.83;;;;;;;19.15;55.73;100298.91;4943236;29;20179;-65
2022/12/26 05:39:23;;;;;;;2.73;1.57;;;;;;;19.13;55.64;100301.34;4950289;28;20236;-66
2022/12/26 05:41:48;;;;;;;3.60;1.60;;;;;;;19.16;55.53;100294.81;4936993;28;20422;-65
2022/12/26 05:44:14;;;;;;;4.13;1.90;;;;;;;19.18;55.84;100298.16;4965966;28;20186;-66
2022/12/26 05:46:41;;;;;;;4.40;1.77;;;;;;;19.16;55.80;100300.56;4969946;28;20195;-65
2022/12/26 05:49:06;;;;;;;5.27;2.23;;;;;;;19.17;55.85;100307.91;4972032;28;20167;-65
2022/12/26 05:51:32;;;;;;;3.80;1.87;;;;;;;19.13;55.77;100301.34;4970403;28;20422;-66
2022/12/26 05:53:57;;;;;;;5.07;1.73;;;;;;;19.14;55.78;100302.16;4966724;28;20186;-66
2022/12/26 05:56:23;;;;;;;3.73;1.93;;;;;;;19.15;55.66;100293.19;4969656;28;20186;-66
2022/12/26 05:58:53;;;;;;;3.43;1.70;;;;;;;19.14;55.66;100291.53;4970112;28;20254;-65
2022/12/26 06:01:19;;;;;;;4.80;2.30;;;;;;;19.15;55.72;100298.06;4966083;28;20254;-65
2022/12/26 06:03:50;;;;;;;3.97;1.67;;;;;;;19.15;55.62;100281.72;4970043;28;20963;-65
2022/12/26 06:06:15;;;;;;;3.43;1.80;;;;;;;19.17;55.61;100278.50;4949221;28;20203;-65
2022/12/26 06:08:41;;;;;;;4.83;1.97;;;;;;;19.17;55.74;100287.09;4955685;28;20457;-65
2022/12/26 06:11:08;;;;;;;3.03;1.80;;;;;;;19.14;55.65;100285.81;4953806;28;20706;-66
2022/12/26 06:13:34;;;;;;;3.07;1.90;;;;;;;19.15;55.71;100298.91;4969714;28;20653;-66
2022/12/26 06:16:06;;;;;;;5.23;2.20;;;;;;;19.14;55.63;100297.25;4949972;28;20473;-66
2022/12/26 06:18:31;;;;;;;3.60;2.00;;;;;;;19.15;55.70;100298.91;4949378;29;20619;-65
2022/12/26 06:20:57;;;;;;;5.53;1.63;;;;;;;19.16;55.71;100299.75;4949536;29;20427;-65
2022/12/26 06:23:22;;;;;;;4.60;1.93;;;;;;;19.16;55.50;100294.03;4935209;29;20191;-65
2022/12/26 06:25:54;;;;;;;4.20;2.23;;;;;;;19.15;55.80;100298.91;4949593;29;20171;-66
2022/12/26 06:28:20;;;;;;;3.30;1.80;;;;;;;19.16;55.69;100300.56;4947409;28;20186;-65
2022/12/26 06:30:45;;;;;;;3.10;1.63;;;;;;;19.17;55.68;100302.19;4953013;28;20478;-66
2022/12/26 06:33:11;;;;;;;3.00;2.00;;;;;;;19.18;55.60;100297.31;4957292;28;20183;-65
2022/12/26 06:35:36;;;;;;;3.23;1.70;;;;;;;19.15;55.53;100298.91;4951501;28;20183;-65
2022/12/26 06:38:02;;;;;;;5.07;1.90;;;;;;;19.15;55.65;100310.34;4953678;28;20214;-65
2022/12/26 06:40:27;;;;;;;2.73;1.70;;;;;;;19.19;55.65;100304.69;4964347;28;20416;-66
2022/12/26 06:42:53;;;;;;;3.27;2.00;;;;;;;19.16;55.65;100311.19;4950155;29;20175;-65
2022/12/26 06:45:18;;;;;;;3.23;1.87;;;;;;;19.17;55.49;100321.41;4936640;28;20522;-65
2022/12/26 06:47:45;;;;;;;3.60;2.00;;;;;;;19.16;55.72;100323.44;4950275;29;20237;-65
2022/12/26 06:50:10;;;;;;;3.00;1.67;;;;;;;19.16;55.52;100322.63;4949877;29;20705;-66
2022/12/26 06:52:36;;;;;;;4.03;1.90;;;;;;;19.17;55.67;100330.81;4949515;28;20441;-66
2022/12/26 06:55:01;;;;;;;2.37;1.33;;;;;;;19.18;55.53;100332.50;4952511;28;20183;-65
2022/12/26 06:57:27;;;;;;;2.80;1.77;;;;;;;19.19;55.64;100336.16;4951309;28;20261;-66
2022/12/26 06:59:52;;;;;;;4.97;1.70;;;;;;;19.20;55.67;100330.06;4952079;28;20227;-66
2022/12/26 07:02:18;;;;;;;3.63;1.60;;;;;;;19.16;55.90;100323.44;4966006;28;20187;-66
2022/12/26 07:04:43;;;;;;;2.60;1.63;;;;;;;19.18;55.19;100321.03;4964461;28;20194;-65
2022/12/26 07:07:09;;;;;;;6.30;1.50;;;;;;;19.21;55.60;100313.72;4949581;28;20183;-66
2022/12/26 07:09:34;;;;;;;3.13;1.60;;;;;;;19.16;55.49;100314.84;4964757;28;20561;-66
2022/12/26 07:12:00;;;;;;;4.00;1.70;;;;;;;19.19;55.44;100305.53;4968675;28;20202;-65
2022/12/26 07:14:25;;;;;;;3.23;1.67;;;;;;;19.18;55.58;100314.47;4967267;28;20217;-65
2022/12/26 07:16:50;;;;;;;2.80;1.77;;;;;;;19.19;55.50;100314.09;4968716;28;20186;-65
2022/12/26 07:19:16;;;;;;;3.10;1.70;;;;;;;19.18;55.61;100326.78;4969374;28;20202;-65
2022/12/26 07:21:42;;;;;;;2.87;1.50;;;;;;;19.18;55.75;100329.63;4968767;28;20183;-66
2022/12/26 07:24:18;;;;;;;3.83;1.80;;;;;;;19.20;55.50;100334.94;4938693;29;20190;-65
2022/12/26 07:26:44;;;;;;;5.70;1.70;;;;;;;19.21;55.57;100328.84;4950408;28;20187;-66
2022/12/26 07:29:10;;;;;;;3.20;1.53;;;;;;;19.18;55.72;100335.34;4953707;28;20441;-65
2022/12/26 07:31:35;;;;;;;3.30;1.60;;;;;;;19.19;55.68;100328.41;4959442;28;20183;-65
2022/12/26 07:34:00;;;;;;;2.90;1.90;;;;;;;19.18;55.61;100332.50;4952917;28;20249;-67
2022/12/26 07:36:26;;;;;;;2.70;1.77;;;;;;;19.23;55.54;100335.06;4949488;29;20183;-65
2022/12/26 07:38:51;;;;;;;3.80;2.17;;;;;;;19.21;55.57;100325.97;4953938;28;20217;-65
2022/12/26 07:44:01;;;;;;;3.70;1.70;;;;;;;19.20;55.70;100341.50;4950234;29;20181;-65
2022/12/26 07:46:26;;;;;;;2.73;1.53;;;;;;;19.20;56.06;100347.22;4934069;28;20457;-66
2022/12/26 07:48:52;;;;;;;2.63;1.70;;;;;;;19.17;55.56;100350.84;4934333;29;20183;-65
2022/12/26 07:51:17;;;;;;;4.53;2.27;;;;;;;19.20;55.37;100357.84;4950473;28;20190;-66
2022/12/26 07:53:43;;;;;;;4.93;1.33;;;;;;;19.21;55.67;100360.31;4949507;29;20203;-65
2022/12/26 07:56:08;;;;;;;3.17;1.53;;;;;;;19.20;55.87;100360.69;4952775;28;20194;-65
2022/12/26 07:58:34;;;;;;;2.80;1.60;;;;;;;19.23;55.86;100377.16;4963178;28;20718;-65
2022/12/26 08:01:00;;;;;;;1.90;1.20;;;;;;;19.23;55.47;100386.59;5029557;28;20516;-65
2022/12/26 08:03:26;;;;;;;3.60;1.43;;;;;;;19.22;55.47;100393.50;4948251;28;20187;-65
2022/12/26 08:05:51;;;;;;;3.13;1.90;;;;;;;19.26;55.39;100402.97;4950002;29;20441;-66
2022/12/26 08:08:17;;;;;;;2.50;1.50;;;;;;;19.21;55.75;100411.03;4946456;29;20297;-66
2022/12/26 08:10:42;;;;;;;3.57;2.03;;;;;;;19.23;55.60;100422.94;4931371;29;20187;-67
2022/12/26 08:13:08;;;;;;;2.90;1.60;;;;;;;19.22;55.54;100436.41;4934483;29;20195;-65
2022/12/26 08:15:33;;;;;;;2.53;1.47;;;;;;;19.25;55.45;100434.81;4948669;29;20178;-65
2022/12/26 08:17:59;;;;;;;3.33;1.67;;;;;;;19.21;55.59;100439.66;4948595;29;20523;-65
2022/12/26 08:20:24;;;;;;;3.83;1.87;;;;;;;19.21;55.51;100443.31;4946574;28;20214;-65
2022/12/26 08:22:49;;;;;;;3.00;1.40;;;;;;;19.23;55.56;100449.56;4946555;29;20187;-66
2022/12/26 08:25:15;;;;;;;3.50;1.77;;;;;;;19.21;55.78;100446.19;4941864;29;20195;-65
2022/12/26 08:27:40;;;;;;;3.50;1.50;;;;;;;19.21;55.48;100449.06;4915057;29;20242;-65
2022/12/26 08:30:06;;;;;;;2.50;1.60;;;;;;;19.24;55.74;100459.78;4950562;28;20183;-66
2022/12/26 08:32:32;;;;;;;2.30;1.23;;;;;;;19.21;55.71;100466.22;4936794;28;20780;-65
2022/12/26 08:34:57;;;;;;;3.10;1.50;;;;;;;19.19;55.69;100474.38;4932810;29;20420;-65
2022/12/26 08:37:23;;;;;;;2.43;1.50;;;;;;;19.19;55.71;100482.13;4933734;29;20184;-65
2022/12/26 08:39:51;;;;;;;2.33;1.30;;;;;;;19.23;55.64;100494.50;4942134;29;20261;-66
2022/12/26 08:42:17;;;;;;;5.10;1.27;;;;;;;19.23;55.88;100495.34;4952884;29;20253;-65
2022/12/26 08:44:42;;;;;;;5.13;1.60;;;;;;;19.21;55.76;100494.03;4952039;29;20482;-65
2022/12/26 08:47:08;;;;;;;3.33;1.83;;;;;;;19.21;55.56;100497.72;4949664;28;20222;-65
2022/12/26 08:49:33;;;;;;;2.50;1.60;;;;;;;19.22;55.64;100493.66;4936083;29;20178;-65
2022/12/26 08:51:59;;;;;;;2.40;1.20;;;;;;;19.21;55.65;100503.44;4947370;28;20237;-65
2022/12/26 08:54:24;;;;;;;2.77;1.53;;;;;;;19.21;55.65;100503.44;4932323;29;20184;-66
2022/12/26 08:56:50;;;;;;;4.60;1.33;;;;;;;19.22;55.53;100510.84;4900781;29;20647;-65
2022/12/26 08:59:15;;;;;;;2.17;1.40;;;;;;;19.24;55.58;100519.06;4945158;28;20230;-65
2022/12/26 09:01:41;;;;;;;2.87;1.60;;;;;;;19.23;55.35;100503.94;4960630;28;20253;-66
2022/12/26 09:04:06;;;;;;;3.03;1.70;;;;;;;19.23;55.62;100509.66;4953631;28;20178;-66
2022/12/26 09:06:33;;;;;;;3.70;1.80;;;;;;;19.23;55.58;100518.25;4953094;28;20214;-65
2022/12/26 09:08:59;;;;;;;3.03;1.60;;;;;;;19.25;55.36;100526.44;4957723;28;20638;-65
2022/12/26 09:11:27;;;;;;;3.20;2.00;;;;;;;19.24;55.65;100533.38;4970651;28;20426;-67
2022/12/26 09:13:53;;;;;;;3.80;1.80;;;;;;;19.25;55.40;100530.13;4968814;28;20187;-65
2022/12/26 09:16:23;;;;;;;1.90;1.10;;;;;;;19.22;55.64;100528.00;4954632;28;20444;-65
2022/12/26 09:18:52;;;;;;;2.90;1.60;;;;;;;19.22;55.86;100533.75;4951966;28;20211;-66
2022/12/26 09:21:17;;;;;;;2.67;1.43;;;;;;;19.19;55.63;100540.22;4956889;28;20873;-65
2022/12/26 09:23:43;;;;;;;2.73;1.30;;;;;;;19.19;55.88;100545.94;4950897;29;20434;-65
2022/12/26 09:26:11;;;;;;;2.73;1.33;;;;;;;19.18;56.09;100555.72;4964258;28;20194;-65
2022/12/26 09:28:36;;;;;;;2.90;1.50;;;;;;;19.20;55.91;100543.88;4951565;28;20175;-66
2022/12/26 09:31:03;;;;;;;2.50;1.43;;;;;;;19.19;55.89;100528.75;4953083;28;20927;-65
2022/12/26 09:33:29;;;;;;;2.40;1.40;;;;;;;19.19;56.11;100516.47;4954179;28;20194;-65
2022/12/26 09:35:54;;;;;;;3.57;1.90;;;;;;;19.20;55.57;100524.69;4954355;28;20426;-65
2022/12/26 09:38:20;;;;;;;3.90;1.67;;;;;;;19.21;55.86;100523.47;4956323;28;20240;-65
2022/12/26 09:41:18;;;;;;;2.17;1.50;;;;;;;19.21;55.78;100523.47;4954381;28;20182;-65
2022/12/26 09:44:02;;;;;;;2.83;1.40;;;;;;;19.24;55.64;100537.06;4959297;28;20606;-66
2022/12/26 09:46:34;;;;;;;2.33;1.30;;;;;;;19.24;55.60;100534.22;4951195;28;20791;-65
2022/12/26 09:49:10;;;;;;;3.00;1.20;;;;;;;19.20;55.60;100541.03;4954195;28;20845;-65
2022/12/26 09:51:36;;;;;;;6.77;1.90;;;;;;;19.21;55.77;100537.78;4950738;29;20430;-66
2022/12/26 09:54:02;;;;;;;4.50;1.80;;;;;;;19.19;55.78;100568.84;4950546;29;20423;-66
2022/12/26 09:56:28;;;;;;;2.00;1.10;;;;;;;19.19;55.95;100588.88;4947201;29;20198;-65
2022/12/26 09:58:59;;;;;;;2.40;1.30;;;;;;;19.21;55.78;100577.84;4937117;29;20483;-66
2022/12/26 10:01:27;;;;;;;2.43;1.23;;;;;;;19.21;55.75;100585.63;4953577;28;20214;-66
2022/12/26 10:03:55;;;;;;;3.20;1.53;;;;;;;19.20;56.01;100596.25;4973308;28;20525;-66
2022/12/26 10:06:25;;;;;;;1.93;1.13;;;;;;;19.19;55.79;100591.72;4952438;28;20983;-67
2022/12/26 10:08:54;;;;;;;2.87;1.63;;;;;;;19.20;55.71;100592.53;4948508;28;20430;-66
2022/12/26 10:11:28;;;;;;;2.77;1.50;;;;;;;19.21;55.78;100586.44;4951658;28;20785;-66
2022/12/26 10:14:22;;;;;;;2.50;1.50;;;;;;;19.19;55.84;100591.72;4937849;29;20496;-67
2022/12/26 10:17:00;;;;;;;3.03;1.33;;;;;;;19.25;55.52;100575.09;4966022;28;20947;-67
2022/12/26 10:19:49;;;;;;;2.77;1.43;;;;;;;19.24;55.83;100565.69;4937343;28;20880;-65
2022/12/26 10:22:53;;;;;;;2.27;1.20;;;;;;;19.21;55.61;100569.28;4968726;28;20422;-66
2022/12/26 10:25:20;;;;;;;2.60;1.63;;;;;;;19.23;55.53;100569.78;4965001;28;21000;-67
2022/12/26 10:27:48;;;;;;;2.07;1.00;;;;;;;19.23;55.60;100572.63;4932958;29;20438;-66
2022/12/26 10:30:20;;;;;;;2.90;1.60;;;;;;;19.21;55.63;100569.28;4917900;28;20454;-67
2022/12/26 10:32:50;;;;;;;2.20;1.40;;;;;;;19.23;55.58;100558.31;4952487;28;20476;-66
2022/12/26 10:35:22;;;;;;;2.37;1.43;;;;;;;19.21;55.67;100559.88;4934360;29;20458;-66
2022/12/26 10:37:49;;;;;;;1.97;1.10;;;;;;;19.23;55.49;100563.19;4952383;28;20534;-66
2022/12/26 10:40:33;;;;;;;2.90;1.30;;;;;;;19.23;55.62;100561.19;4946337;29;20478;-66
2022/12/26 10:43:20;;;;;;;2.70;1.40;;;;;;;19.26;55.71;100565.31;4949990;29;20411;-66
2022/12/26 10:46:20;;;;;;;2.43;1.40;;;;;;;19.26;55.67;100586.16;4966819;28;20462;-66
2022/12/26 10:48:45;;;;;;;2.60;1.47;;;;;;;19.27;55.44;100582.09;4950593;29;20521;-66
2022/12/26 10:51:12;;;;;;;2.10;1.23;;;;;;;19.21;55.55;100575.00;4949019;29;20431;-66
2022/12/26 10:53:45;;;;;;;2.67;1.33;;;;;;;19.27;55.62;100579.22;4949248;28;20229;-65
2022/12/26 10:56:11;;;;;;;2.60;1.33;;;;;;;19.25;55.63;100575.09;4954281;28;20443;-67
2022/12/26 10:58:36;;;;;;;2.63;1.63;;;;;;;19.26;55.68;100574.72;4967287;28;20477;-66
2022/12/26 11:01:27;;;;;;;2.40;1.40;;;;;;;19.28;55.46;100585.78;4952882;28;20646;-66
2022/12/26 11:04:00;;;;;;;4.93;1.50;;;;;;;19.24;55.64;100584.88;4973173;28;20182;-66
2022/12/26 11:06:35;;;;;;;2.50;1.47;;;;;;;19.24;55.62;100587.75;4952965;28;20441;-66
2022/12/26 11:09:06;;;;;;;3.80;1.47;;;;;;;19.24;56.01;100582.88;4961859;28;20441;-68
2022/12/26 11:11:45;;;;;;;3.03;1.50;;;;;;;19.25;55.46;100584.50;4949413;28;20588;-65
2022/12/26 11:14:26;;;;;;;2.10;1.33;;;;;;;19.25;55.52;100589.41;4969032;28;20432;-66
2022/12/26 11:16:51;;;;;;;3.20;1.53;;;;;;;19.24;55.65;100574.28;4966590;28;20441;-65
2022/12/26 11:19:31;;;;;;;1.97;1.10;;;;;;;19.24;55.53;100573.44;4940830;28;20488;-65
2022/12/26 11:22:28;;;;;;;3.40;1.57;;;;;;;19.26;55.41;100577.56;4966641;28;20182;-65
2022/12/26 11:25:08;;;;;;;3.00;1.53;;;;;;;19.29;55.66;100567.41;4964605;28;20472;-65
2022/12/26 11:27:34;;;;;;;2.67;1.30;;;;;;;19.28;55.50;100568.63;4969476;28;20436;-66
2022/12/26 11:30:12;;;;;;;4.20;1.70;;;;;;;19.23;55.86;100571.78;4969950;28;20838;-66
2022/12/26 11:32:38;;;;;;;2.57;1.80;;;;;;;19.28;55.50;100577.19;4961308;28;20448;-66
2022/12/26 11:35:04;;;;;;;2.80;1.50;;;;;;;19.27;55.51;100579.22;4949451;28;20415;-65
2022/12/26 11:37:33;;;;;;;2.80;1.57;;;;;;;19.27;55.59;100582.09;4950733;28;20214;-65
2022/12/26 11:40:00;;;;;;;2.10;1.40;;;;;;;19.25;55.90;100578.78;4946634;28;20986;-65
2022/12/26 11:42:26;;;;;;;2.83;1.60;;;;;;;19.25;55.65;100575.94;4968725;28;20495;-65
2022/12/26 11:44:54;;;;;;;2.90;1.60;;;;;;;19.24;55.36;100568.56;4964708;28;20434;-66
2022/12/26 11:47:25;;;;;;;4.43;1.40;;;;;;;19.28;55.63;100566.59;4968421;28;20858;-65
2022/12/26 11:50:10;;;;;;;2.37;1.37;;;;;;;19.26;55.71;100568.19;4952940;28;20451;-65
2022/12/26 11:52:54;;;;;;;2.30;1.17;;;;;;;19.28;55.39;100552.28;4966734;28;20410;-65
2022/12/26 11:55:25;;;;;;;1.90;1.10;;;;;;;19.27;55.20;100546.94;4965097;28;20437;-65
2022/12/26 11:58:07;;;;;;;2.93;1.50;;;;;;;19.28;55.35;100554.31;4962627;28;20534;-66
2022/12/26 12:00:37;;;;;;;4.43;1.50;;;;;;;19.25;55.60;100561.63;4969521;28;20477;-65
2022/12/26 12:03:08;;;;;;;2.70;1.40;;;;;;;19.26;55.53;100557.53;4953700;28;20860;-65
2022/12/26 12:05:56;;;;;;;2.43;1.30;;;;;;;19.27;55.60;100546.94;4959828;28;20483;-65
2022/12/26 12:08:57;;;;;;;2.43;1.50;;;;;;;19.24;55.34;100541.94;5009609;28;20452;-67
2022/12/26 12:12:07;;;;;;;3.23;1.50;;;;;;;19.21;55.67;100537.78;4975804;28;20433;-65
2022/12/26 12:14:58;;;;;;;3.23;1.43;;;;;;;19.27;55.55;100547.75;4924396;29;20926;-65
2022/12/26 12:17:27;;;;;;;3.23;1.50;;;;;;;19.27;55.44;100544.88;4911911;29;20506;-65
2022/12/26 12:19:55;;;;;;;2.63;1.40;;;;;;;19.28;55.85;100549.41;4959025;28;20983;-65
2022/12/26 12:23:11;;;;;;;2.43;1.20;;;;;;;19.26;55.64;100546.09;4969312;28;20438;-65
2022/12/26 12:25:55;;;;;;;2.40;1.37;;;;;;;19.26;55.44;100546.09;4994385;28;20940;-65
2022/12/26 12:28:41;;;;;;;3.33;1.40;;;;;;;19.24;55.62;100544.81;4960479;28;20476;-65
2022/12/26 12:31:21;;;;;;;6.20;1.73;;;;;;;19.24;55.75;100551.38;4952963;28;20939;-65
2022/12/26 12:33:56;;;;;;;3.30;1.50;;;;;;;19.25;55.33;100544.44;4971407;28;20463;-65
2022/12/26 12:36:46;;;;;;;2.33;1.40;;;;;;;19.25;55.69;100543.59;4963613;28;20790;-66
2022/12/26 12:39:44;;;;;;;2.60;1.50;;;;;;;19.26;55.34;100551.81;4975928;28;20526;-65
2022/12/26 12:42:22;;;;;;;5.30;1.47;;;;;;;19.29;55.39;100551.06;4951736;28;20452;-66
2022/12/26 12:45:25;;;;;;;3.20;1.40;;;;;;;19.26;55.41;100548.94;4968839;28;20426;-65
2022/12/26 12:48:13;;;;;;;2.13;1.40;;;;;;;19.27;55.61;100539.16;5025561;28;21170;-65
2022/12/26 12:50:42;;;;;;;2.37;1.13;;;;;;;19.28;55.38;100535.09;4969191;28;20417;-66
2022/12/26 12:53:29;;;;;;;2.10;1.40;;;;;;;19.28;55.54;100531.41;5034686;28;20472;-66
2022/12/26 12:55:58;;;;;;;2.50;1.10;;;;;;;19.27;55.80;100535.47;4969842;28;20422;-65
2022/12/26 12:59:00;;;;;;;2.10;1.30;;;;;;;19.28;55.29;100517.09;4968751;28;20477;-66
2022/12/26 13:01:29;;;;;;;2.70;1.70;;;;;;;19.28;55.80;100508.50;4951322;28;20448;-66
2022/12/26 13:04:19;;;;;;;2.40;1.40;;;;;;;19.27;55.71;100512.59;4961358;28;20414;-65
2022/12/26 13:06:53;;;;;;;4.40;1.70;;;;;;;19.27;55.41;100530.56;4968930;28;20521;-65
2022/12/26 13:09:33;;;;;;;2.37;1.30;;;;;;;19.28;55.34;100537.97;4958744;28;20433;-65
2022/12/26 13:12:06;;;;;;;3.77;1.40;;;;;;;19.30;55.41;100535.53;4949890;28;20429;-66
2022/12/26 13:14:35;;;;;;;4.63;1.40;;;;;;;19.31;55.31;100536.38;4951196;28;20460;-65
2022/12/26 13:17:35;;;;;;;2.83;1.23;;;;;;;19.26;55.42;100530.97;4963447;28;20447;-66
2022/12/26 13:20:06;;;;;;;3.20;1.47;;;;;;;19.27;55.52;100526.91;4984719;28;20453;-66
2022/12/26 13:25:30;;;;;;;2.40;1.50;;;;;;;19.30;55.87;100523.25;4976522;28;20400;-65
2022/12/26 13:28:08;;;;;;;2.50;1.20;;;;;;;19.25;55.47;100515.81;4953773;28;20468;-66
2022/12/26 13:30:33;;;;;;;5.30;1.60;;;;;;;19.26;55.54;100511.75;4972952;28;20420;-67
2022/12/26 13:32:59;;;;;;;3.27;1.37;;;;;;;19.25;55.71;100512.13;4956931;28;21166;-66
2022/12/26 13:36:03;;;;;;;5.20;1.40;;;;;;;19.23;55.33;100512.53;4959308;28;20181;-66
2022/12/26 13:38:56;;;;;;;2.30;1.30;;;;;;;19.29;55.52;100515.88;4961005;28;20288;-65
2022/12/26 13:44:25;;;;;;;3.33;1.30;;;;;;;19.27;55.47;100501.94;4964551;28;20441;-66
2022/12/26 13:46:50;;;;;;;2.20;1.10;;;;;;;19.30;55.51;100494.63;5020080;28;20800;-66
2022/12/26 13:49:28;;;;;;;4.10;1.37;;;;;;;19.26;55.40;100491.69;4973567;28;20441;-65
2022/12/26 13:52:21;;;;;;;2.60;1.40;;;;;;;19.30;55.47;100491.75;4971202;28;20207;-65